Time;durP1;ratioP1;P1;durP2;ratioP2;P2;SDS_P1;SDS_P2;PMS_P1;PMS_P2;Temp;Humidity;BMP_temperature;BMP_pressure;BME280_temperature;BME280_humidity;BME280_pressure;Samples;Min_cycle;Max_cycle;Signal;HPM_P1;HPM_P2
2023/06/22 00:03:25;;;;;;;8.00;3.97;;;;;;;20.74;78.33;98063.81;10604715;27;20135;-69
2023/06/22 00:08:46;;;;;;;7.75;3.95;;;;;;;20.72;78.21;98083.63;10552272;28;20124;-67
2023/06/22 00:14:06;;;;;;;6.75;3.80;;;;;;;20.69;78.55;98082.81;10581517;28;20118;-69
2023/06/22 00:19:27;;;;;;;10.02;4.80;;;;;;;20.65;78.24;98074.16;10570727;28;20161;-68
2023/06/22 00:24:47;;;;;;;8.57;4.00;;;;;;;20.64;78.25;98078.41;10590139;28;20525;-68
2023/06/22 00:30:08;;;;;;;6.80;4.47;;;;;;;20.65;78.21;98077.00;10574308;28;20120;-68
2023/06/22 00:35:29;;;;;;;9.40;4.40;;;;;;;20.68;78.06;98077.81;10573960;28;20073;-68
2023/06/22 00:40:50;;;;;;;6.93;4.03;;;;;;;20.64;78.05;98078.41;10573608;28;20067;-68
2023/06/22 00:46:10;;;;;;;7.00;4.50;;;;;;;20.54;78.56;98083.72;10573522;28;20138;-68
2023/06/22 00:51:31;;;;;;;9.02;4.65;;;;;;;20.42;79.12;98086.84;10544921;28;20039;-69
2023/06/22 00:56:54;;;;;;;6.13;4.57;;;;;;;20.28;79.64;98075.75;10558963;28;20119;-68
2023/06/22 01:02:14;;;;;;;8.73;5.28;;;;;;;20.17;79.30;98062.63;10559262;28;20146;-68
2023/06/22 01:07:35;;;;;;;11.27;4.38;;;;;;;20.07;79.97;98053.03;10626993;27;20541;-68
2023/06/22 01:13:00;;;;;;;8.18;4.50;;;;;;;20.01;80.46;98047.88;10600992;27;20110;-69
2023/06/22 01:18:20;;;;;;;7.10;4.63;;;;;;;19.93;80.85;98056.81;10586232;27;20123;-68
2023/06/22 01:23:53;;;;;;;9.90;4.65;;;;;;;19.85;81.06;98045.19;10600650;27;20049;-69
2023/06/22 01:29:14;;;;;;;7.50;5.07;;;;;;;19.85;81.66;98047.28;10615067;27;20110;-69
2023/06/22 01:34:34;;;;;;;7.80;4.55;;;;;;;19.82;81.79;98042.94;10600207;27;20188;-68
2023/06/22 01:39:56;;;;;;;10.43;4.78;;;;;;;19.82;81.75;98034.44;10600485;27;20043;-68
2023/06/22 01:45:17;;;;;;;8.75;4.78;;;;;;;19.86;81.60;98045.91;10613923;27;20070;-69
2023/06/22 01:50:38;;;;;;;5.85;4.43;;;;;;;19.87;81.57;98042.41;10599750;27;20123;-68
2023/06/22 01:55:59;;;;;;;8.85;4.88;;;;;;;19.85;81.35;98052.97;10599481;27;20122;-68
2023/06/22 02:01:24;;;;;;;7.13;5.32;;;;;;;19.85;81.45;98052.97;10613839;27;20491;-69
2023/06/22 02:06:45;;;;;;;10.40;4.90;;;;;;;19.86;81.30;98055.13;10570867;28;20127;-68
2023/06/22 02:12:06;;;;;;;6.95;5.03;;;;;;;19.86;81.20;98068.56;10570577;28;20047;-69
2023/06/22 02:17:27;;;;;;;6.35;5.35;;;;;;;19.84;81.00;98066.41;10556281;28;20043;-67
2023/06/22 02:22:47;;;;;;;6.68;4.72;;;;;;;19.85;80.93;98061.47;10570111;28;20119;-68
2023/06/22 02:28:08;;;;;;;8.18;4.80;;;;;;;19.75;81.18;98067.47;10569824;28;20036;-69
2023/06/22 02:33:31;;;;;;;8.45;5.18;;;;;;;19.67;81.21;98076.41;10583766;28;20075;-69
2023/06/22 02:38:52;;;;;;;7.65;4.85;;;;;;;19.63;81.12;98067.03;10584723;28;20137;-68
2023/06/22 02:44:14;;;;;;;7.93;5.30;;;;;;;19.63;81.04;98064.22;10583999;28;20047;-69
2023/06/22 02:49:35;;;;;;;7.60;5.20;;;;;;;19.61;81.44;98067.69;10583096;28;20036;-69
2023/06/22 02:54:55;;;;;;;8.70;5.10;;;;;;;19.55;81.60;98058.22;10568847;28;20040;-69
2023/06/22 03:00:17;;;;;;;7.88;4.97;;;;;;;19.54;81.45;98051.81;10582754;28;20169;-69
2023/06/22 03:05:40;;;;;;;;;;;;;;;19.53;81.77;98053.22;10582733;28;20138;-69
2023/06/22 03:11:02;;;;;;;8.95;5.32;;;;;;;19.57;81.40;98056.22;10553874;28;19926;-68
2023/06/22 03:16:22;;;;;;;8.85;5.25;;;;;;;19.64;81.38;98068.50;10553709;28;20039;-69
2023/06/22 03:21:43;;;;;;;8.25;5.47;;;;;;;19.67;80.98;98070.75;10567739;28;20114;-68
2023/06/22 03:27:05;;;;;;;10.88;5.38;;;;;;;19.77;80.93;98073.22;10567378;28;20127;-68
2023/06/22 03:32:27;;;;;;;;;;;;;;;19.88;80.69;98079.97;10567771;28;20046;-68
2023/06/22 03:37:48;;;;;;;10.18;5.30;;;;;;;19.98;80.53;98066.19;10582341;28;20015;-68
2023/06/22 03:43:09;;;;;;;8.68;5.10;;;;;;;20.13;80.67;98073.81;10552943;28;20564;-69
2023/06/22 03:48:29;;;;;;;7.88;5.35;;;;;;;20.29;79.98;98063.03;10566547;28;20073;-68
2023/06/22 03:53:50;;;;;;;10.38;5.07;;;;;;;20.46;79.97;98072.09;10565780;28;20173;-68
2023/06/22 03:59:11;;;;;;;9.32;5.10;;;;;;;20.64;79.21;98066.31;10566762;28;20114;-69
2023/06/22 04:04:31;;;;;;;12.43;5.75;;;;;;;20.78;78.93;98055.47;10594741;27;20118;-68
2023/06/22 04:09:53;;;;;;;7.30;5.03;;;;;;;20.98;78.56;98046.88;10624024;27;20110;-68
2023/06/22 04:15:14;;;;;;;8.98;4.43;;;;;;;21.15;78.36;98049.56;10608523;28;20084;-69
2023/06/22 04:20:34;;;;;;;7.75;5.22;;;;;;;21.38;77.95;98033.22;10623769;28;20114;-68
2023/06/22 04:25:56;;;;;;;9.77;5.35;;;;;;;21.57;77.29;98035.19;10608177;28;20066;-69
2023/06/22 04:31:18;;;;;;;8.98;6.25;;;;;;;21.68;76.17;98044.72;10608142;28;20553;-69
2023/06/22 04:36:40;;;;;;;9.98;6.50;;;;;;;21.83;75.65;98049.44;10608796;28;20043;-69
2023/06/22 04:42:01;;;;;;;8.98;5.82;;;;;;;22.02;74.84;98056.34;10593804;28;20096;-68
2023/06/22 04:47:23;;;;;;;8.52;6.47;;;;;;;22.32;74.09;98067.84;10623302;28;20043;-69
2023/06/22 04:52:43;;;;;;;8.70;6.20;;;;;;;22.46;72.67;98064.63;10607512;28;20073;-69
2023/06/22 04:58:04;;;;;;;9.65;6.07;;;;;;;22.90;72.09;98070.75;10622877;28;20042;-69
2023/06/22 05:03:26;;;;;;;10.57;6.47;;;;;;;23.18;70.54;98070.69;10604372;27;20443;-69
2023/06/22 05:08:47;;;;;;;11.20;6.20;;;;;;;23.49;69.48;98071.38;10573044;28;20074;-68
2023/06/22 05:14:08;;;;;;;8.30;6.60;;;;;;;23.89;68.93;98077.94;10572846;28;20040;-69
2023/06/22 05:19:33;;;;;;;11.80;6.57;;;;;;;24.44;67.25;98081.16;10587728;28;20064;-68
2023/06/22 05:24:56;;;;;;;8.38;6.35;;;;;;;24.88;65.51;98101.16;10558858;28;20346;-69
2023/06/22 05:30:18;;;;;;;10.35;6.95;;;;;;;25.30;64.32;98100.44;10587088;28;20066;-69
2023/06/22 05:35:41;;;;;;;8.45;6.78;;;;;;;25.68;63.33;98111.69;10571646;28;20035;-69
2023/06/22 05:41:02;;;;;;;13.20;7.38;;;;;;;26.38;61.81;98125.47;10571153;28;20048;-69
2023/06/22 05:46:23;;;;;;;13.52;7.07;;;;;;;26.57;59.99;98140.69;10570837;28;20047;-69
2023/06/22 05:51:44;;;;;;;9.80;6.95;;;;;;;26.91;58.53;98131.69;10585786;28;20044;-68
2023/06/22 05:57:06;;;;;;;10.40;7.28;;;;;;;27.15;57.73;98128.38;10571253;28;20481;-69
2023/06/22 06:02:27;;;;;;;11.45;7.20;;;;;;;27.58;56.53;98123.63;10570940;28;20169;-69
2023/06/22 06:07:49;;;;;;;10.07;6.97;;;;;;;27.78;54.58;98139.53;10626427;27;20125;-69
2023/06/22 06:13:10;;;;;;;10.80;7.93;;;;;;;27.85;53.56;98132.41;10612657;27;20496;-70
2023/06/22 06:18:32;;;;;;;11.13;7.10;;;;;;;28.17;52.59;98134.69;10611564;27;20047;-71
2023/06/22 06:23:53;;;;;;;17.77;7.70;;;;;;;28.82;51.01;98134.91;10612406;27;20050;-71
2023/06/22 06:29:16;;;;;;;11.57;7.20;;;;;;;28.99;48.75;98130.63;10627424;27;20067;-71
2023/06/22 06:34:38;;;;;;;9.85;7.35;;;;;;;29.75;48.51;98128.44;10626958;27;20096;-71
2023/06/22 06:40:00;;;;;;;8.43;6.80;;;;;;;29.96;47.00;98126.19;10626865;27;20093;-71
2023/06/22 06:45:22;;;;;;;13.45;7.60;;;;;;;30.18;46.61;98129.00;10626575;27;20047;-71
2023/06/22 06:50:44;;;;;;;10.02;7.10;;;;;;;30.42;46.06;98130.34;10611209;27;20042;-71
2023/06/22 06:56:05;;;;;;;12.20;7.80;;;;;;;31.08;45.20;98128.50;10610789;27;20039;-72
2023/06/22 07:01:26;;;;;;;10.07;6.30;;;;;;;31.31;43.88;98114.59;10626051;27;20405;-72
2023/06/22 07:06:48;;;;;;;11.63;6.43;;;;;;;31.00;42.57;98109.09;10582141;28;20499;-71
2023/06/22 07:12:10;;;;;;;14.35;8.27;;;;;;;31.18;42.41;98102.44;10582929;28;20044;-70
2023/06/22 07:17:31;;;;;;;12.70;7.72;;;;;;;31.25;42.04;98100.25;10583056;28;20445;-70
2023/06/22 07:22:53;;;;;;;11.50;7.72;;;;;;;30.87;43.12;98092.59;10582674;28;20048;-71
2023/06/22 07:28:15;;;;;;;12.27;7.95;;;;;;;31.24;42.86;98078.63;10582331;28;20046;-71
2023/06/22 07:33:36;;;;;;;;;;;;;;;31.94;41.99;98082.19;10582706;28;20067;-71
2023/06/22 07:38:57;;;;;;;12.93;6.63;;;;;;;31.80;40.89;98076.63;10582090;28;20373;-71
2023/06/22 07:44:18;;;;;;;8.75;5.72;;;;;;;32.53;40.88;98077.84;10567158;28;20044;-71
2023/06/22 07:49:39;;;;;;;10.10;6.40;;;;;;;32.43;39.25;98065.00;10581719;28;20044;-72
2023/06/22 07:55:02;;;;;;;10.85;6.45;;;;;;;31.97;40.01;98062.72;10581742;28;20386;-71
2023/06/22 08:00:23;;;;;;;11.95;6.88;;;;;;;31.66;39.67;98059.47;10580690;28;20048;-71
2023/06/22 08:05:44;;;;;;;8.30;6.10;;;;;;;30.89;41.25;98058.75;10581173;28;20055;-71
2023/06/22 08:11:05;;;;;;;9.40;5.95;;;;;;;31.13;42.08;98042.69;10581438;28;20538;-71
2023/06/22 08:16:27;;;;;;;8.63;7.00;;;;;;;31.28;40.48;98046.88;10581211;28;20050;-72
2023/06/22 08:21:48;;;;;;;10.23;5.75;;;;;;;31.42;41.25;98043.13;10581183;28;20039;-70
2023/06/22 08:27:11;;;;;;;7.80;6.13;;;;;;;31.72;40.99;98039.19;10580838;28;20035;-71
2023/06/22 08:32:33;;;;;;;9.52;5.85;;;;;;;31.73;40.66;98023.28;10566303;28;20096;-70
2023/06/22 08:37:56;;;;;;;8.13;5.78;;;;;;;31.89;40.23;98023.81;10565362;28;20063;-72
2023/06/22 08:43:18;;;;;;;12.10;5.80;;;;;;;32.10;40.01;98017.78;10588963;28;20050;-71
2023/06/22 08:48:40;;;;;;;6.72;6.00;;;;;;;32.26;39.17;98028.38;10573857;28;20108;-70
2023/06/22 08:54:01;;;;;;;8.27;5.55;;;;;;;32.34;39.95;98022.53;10588415;28;20105;-71
2023/06/22 08:59:24;;;;;;;7.97;5.88;;;;;;;32.78;38.10;98026.16;10588373;28;20100;-71
2023/06/22 09:04:49;;;;;;;6.18;5.57;;;;;;;32.48;38.82;98025.19;10602736;27;20119;-71
2023/06/22 09:10:11;;;;;;;6.07;5.00;;;;;;;32.67;38.69;98014.06;10615450;27;20039;-71
2023/06/22 09:15:34;;;;;;;6.85;5.65;;;;;;;33.62;37.31;98019.59;10630129;27;20497;-71
2023/06/22 09:20:55;;;;;;;6.38;5.15;;;;;;;34.76;35.80;98008.41;10630130;27;20039;-72
2023/06/22 09:26:18;;;;;;;8.02;5.80;;;;;;;34.67;33.90;98014.38;10614644;27;20046;-71
2023/06/22 09:31:39;;;;;;;11.93;5.45;;;;;;;34.26;34.86;98005.94;10629459;27;20039;-72
2023/06/22 09:37:01;;;;;;;6.35;5.03;;;;;;;33.95;35.59;97997.19;10629375;27;20056;-72
2023/06/22 09:42:22;;;;;;;7.22;5.32;;;;;;;33.88;35.75;97995.22;10628832;27;20383;-71
2023/06/22 09:47:43;;;;;;;8.50;4.97;;;;;;;34.53;34.15;98005.31;10613738;27;20369;-71
2023/06/22 09:53:04;;;;;;;9.40;5.50;;;;;;;34.59;34.43;97990.69;10627281;27;20050;-71
2023/06/22 09:58:26;;;;;;;6.40;4.80;;;;;;;34.78;33.19;97982.97;10613527;27;20533;-72
2023/06/22 10:03:47;;;;;;;6.65;4.85;;;;;;;34.59;33.92;97979.09;10622030;27;20043;-72
2023/06/22 10:09:09;;;;;;;10.13;5.28;;;;;;;34.83;33.01;97981.38;10585784;28;20044;-72
2023/06/22 10:14:30;;;;;;;;;;;;;;;34.15;33.79;97975.75;10586154;28;20040;-71
2023/06/22 10:19:52;;;;;;;7.25;5.10;;;;;;;33.55;34.78;97975.59;10585396;28;19923;-71
2023/06/22 10:25:13;;;;;;;;;;;;;;;33.97;34.45;97981.97;10585895;28;20182;-72
2023/06/22 10:30:34;;;;;;;6.35;5.20;;;;;;;34.18;33.93;97968.47;10584967;28;19919;-71
2023/06/22 10:35:55;;;;;;;7.65;5.93;;;;;;;34.17;33.54;97978.63;10569699;28;20042;-72
2023/06/22 10:41:16;;;;;;;;;;;;;;;34.61;33.27;97968.16;10585126;28;20055;-72
2023/06/22 10:46:38;;;;;;;7.40;5.57;;;;;;;33.83;34.45;97957.63;10584182;28;19919;-72
2023/06/22 10:51:59;;;;;;;8.75;5.20;;;;;;;33.44;35.89;97963.53;10568937;28;20067;-71
2023/06/22 10:57:21;;;;;;;;;;;;;;;34.16;35.03;97959.81;10584349;28;20055;-71
2023/06/22 11:02:42;;;;;;;6.25;5.65;;;;;;;34.02;34.84;97957.25;10568109;28;19976;-72
2023/06/22 11:08:03;;;;;;;8.40;5.63;;;;;;;33.58;35.58;97948.03;10583270;28;20058;-71
2023/06/22 11:13:24;;;;;;;;;;;;;;;34.07;34.77;97938.31;10583188;28;20114;-71
2023/06/22 11:18:45;;;;;;;8.57;5.88;;;;;;;33.50;35.98;97930.88;10583296;28;19927;-71
2023/06/22 11:24:06;;;;;;;6.40;5.80;;;;;;;33.51;35.27;97932.31;10581957;28;20047;-72
2023/06/22 11:29:27;;;;;;;7.97;5.07;;;;;;;33.61;35.53;97920.50;10582568;28;20104;-71
2023/06/22 11:34:58;;;;;;;7.78;5.32;;;;;;;34.60;34.42;97910.97;10582330;28;20101;-72
2023/06/22 11:40:19;;;;;;;8.32;5.60;;;;;;;34.67;33.92;97900.63;10581230;28;20052;-72
2023/06/22 11:45:39;;;;;;;9.93;6.40;;;;;;;33.39;35.37;97892.75;10581235;28;20474;-72
2023/06/22 11:51:02;;;;;;;;;;;;;;;33.20;35.68;97892.41;10581176;28;20040;-71
2023/06/22 11:56:23;;;;;;;9.52;5.25;;;;;;;33.94;35.51;97890.84;10580842;28;20023;-71
2023/06/22 12:01:44;;;;;;;7.93;5.57;;;;;;;33.14;35.22;97891.81;10581299;28;20091;-71
2023/06/22 12:07:06;;;;;;;7.45;5.30;;;;;;;33.29;36.18;97882.09;10616076;27;20055;-72
2023/06/22 12:12:27;;;;;;;;;;;;;;;34.39;34.91;97879.63;10624429;27;20070;-71
2023/06/22 12:17:48;;;;;;;7.32;5.40;;;;;;;34.69;33.41;97883.91;10623726;28;19919;-71
2023/06/22 12:23:10;;;;;;;9.25;5.15;;;;;;;34.11;33.61;97878.13;10580161;28;20046;-72
2023/06/22 12:28:33;;;;;;;10.13;5.15;;;;;;;33.99;34.45;97866.13;10623653;28;20485;-71
2023/06/22 12:33:57;;;;;;;8.95;5.40;;;;;;;34.08;34.30;97858.66;10623657;28;20039;-72
2023/06/22 12:39:18;;;;;;;6.75;4.65;;;;;;;34.01;33.62;97854.50;10623349;28;20050;-71
2023/06/22 12:44:40;;;;;;;6.78;4.28;;;;;;;33.60;33.12;97840.97;10607961;28;20114;-72
2023/06/22 12:50:02;;;;;;;6.78;4.07;;;;;;;33.35;33.37;97837.16;10623203;28;20043;-72
2023/06/22 12:55:23;;;;;;;6.72;4.82;;;;;;;32.95;34.82;97836.53;10607843;28;20051;-71
2023/06/22 13:00:44;;;;;;;5.55;4.40;;;;;;;33.14;34.50;97834.69;10593668;28;20047;-72
2023/06/22 13:06:05;;;;;;;6.88;4.22;;;;;;;33.04;34.30;97820.47;10581365;28;20501;-71
2023/06/22 13:11:26;;;;;;;7.30;4.43;;;;;;;33.08;33.87;97816.75;10565182;28;20039;-72
2023/06/22 13:16:50;;;;;;;9.38;4.45;;;;;;;33.19;33.67;97806.41;10579967;28;20035;-72
2023/06/22 13:22:29;;;;;;;;;;;;;;;32.70;34.93;97805.22;10580575;28;20047;-72
2023/06/22 13:27:50;;;;;;;9.15;4.90;;;;;;;32.46;36.25;97797.03;10585831;28;19920;-71
2023/06/22 13:33:11;;;;;;;11.35;4.68;;;;;;;32.34;36.27;97791.47;10572190;28;20045;-71
2023/06/22 13:38:34;;;;;;;;;;;;;;;32.59;36.17;97775.09;10587656;28;20105;-72
2023/06/22 13:43:55;;;;;;;7.60;4.97;;;;;;;32.55;35.76;97780.97;10571351;28;19920;-72
2023/06/22 13:49:17;;;;;;;8.63;4.80;;;;;;;32.34;36.84;97774.16;10571424;28;20067;-72
2023/06/22 13:54:38;;;;;;;7.25;4.70;;;;;;;32.39;37.04;97781.25;10586340;28;20040;-71
2023/06/22 13:59:59;;;;;;;6.82;5.30;;;;;;;32.01;36.97;97768.94;10571054;28;20089;-71
2023/06/22 14:05:31;;;;;;;7.75;5.05;;;;;;;32.09;38.02;97760.13;10607460;27;20450;-71
2023/06/22 14:10:53;;;;;;;10.93;5.13;;;;;;;32.22;37.48;97757.00;10628027;27;20168;-71
2023/06/22 14:16:14;;;;;;;7.20;4.80;;;;;;;32.19;37.64;97759.22;10598516;27;20039;-72
2023/06/22 14:21:36;;;;;;;;;;;;;;;32.05;36.60;97750.84;10628150;27;20046;-72
2023/06/22 14:26:57;;;;;;;8.88;4.85;;;;;;;32.00;36.61;97747.31;10612492;27;20360;-72
2023/06/22 14:32:18;;;;;;;;;;;;;;;32.04;36.23;97735.69;10612706;27;20062;-72
2023/06/22 14:37:39;;;;;;;8.55;5.15;;;;;;;32.23;35.94;97736.03;10626708;27;19969;-72
2023/06/22 14:43:00;;;;;;;6.30;4.97;;;;;;;31.56;37.25;97729.28;10627094;27;20442;-71
2023/06/22 14:48:22;;;;;;;7.82;5.32;;;;;;;31.29;38.09;97717.44;10626893;27;20046;-71
2023/06/22 14:53:43;;;;;;;7.45;5.30;;;;;;;31.21;39.49;97719.72;10597141;27;20446;-71
2023/06/22 14:59:04;;;;;;;9.38;6.40;;;;;;;31.31;39.23;97710.94;10582618;27;20054;-72
2023/06/22 15:04:31;;;;;;;8.53;5.73;;;;;;;31.44;39.48;97703.50;10598649;27;20047;-71
2023/06/22 15:09:52;;;;;;;8.25;5.97;;;;;;;31.33;39.97;97696.47;10583734;28;20127;-72
2023/06/22 15:15:13;;;;;;;18.33;6.47;;;;;;;31.02;39.93;97694.03;10567862;28;20137;-72
2023/06/22 15:20:34;;;;;;;8.80;5.90;;;;;;;30.81;40.54;97692.19;10583224;28;20055;-71
2023/06/22 15:25:56;;;;;;;11.60;5.63;;;;;;;30.87;40.79;97684.16;10567783;28;20051;-71
2023/06/22 15:31:17;;;;;;;10.10;5.38;;;;;;;30.88;40.78;97679.09;10553514;28;20093;-71
2023/06/22 15:36:38;;;;;;;7.53;5.80;;;;;;;30.88;40.75;97661.81;10552797;28;20036;-71
2023/06/22 15:41:59;;;;;;;7.80;5.63;;;;;;;30.70;41.57;97640.47;10567402;28;20054;-71
2023/06/22 15:47:22;;;;;;;7.83;5.97;;;;;;;30.63;41.25;97626.88;10581918;28;20043;-71
2023/06/22 15:52:47;;;;;;;15.90;6.90;;;;;;;30.47;41.06;97614.13;10581863;28;20754;-71
2023/06/22 15:58:09;;;;;;;8.43;5.80;;;;;;;30.39;41.68;97604.88;10553829;28;20039;-70
2023/06/22 16:03:31;;;;;;;11.10;5.90;;;;;;;30.38;41.36;97604.16;10570807;27;20062;-71
2023/06/22 16:08:53;;;;;;;11.38;5.55;;;;;;;30.13;41.46;97606.66;10623742;27;20039;-71
2023/06/22 16:14:14;;;;;;;10.18;5.78;;;;;;;30.14;41.96;97616.00;10608597;28;20043;-72
2023/06/22 16:19:35;;;;;;;8.23;5.40;;;;;;;30.11;41.78;97606.69;10608681;28;20083;-70
2023/06/22 16:24:58;;;;;;;10.93;5.85;;;;;;;30.08;41.50;97585.13;10608014;28;20051;-71
2023/06/22 16:30:19;;;;;;;9.10;5.70;;;;;;;30.09;41.01;97605.97;10623281;28;20046;-71
2023/06/22 16:35:40;;;;;;;7.00;5.13;;;;;;;30.06;40.44;97599.50;10623477;28;20039;-71
2023/06/22 16:41:04;;;;;;;7.30;5.25;;;;;;;29.92;40.79;97591.06;10623437;28;20374;-71
2023/06/22 16:46:26;;;;;;;8.63;5.13;;;;;;;29.85;41.43;97581.78;10623072;28;20476;-71
2023/06/22 16:51:47;;;;;;;8.73;5.80;;;;;;;29.90;41.46;97565.88;10607752;28;20047;-70
2023/06/22 16:57:08;;;;;;;7.30;5.38;;;;;;;29.98;41.93;97565.06;10593857;28;20050;-71
2023/06/22 17:02:29;;;;;;;6.63;5.18;;;;;;;29.98;42.10;97558.63;10613585;27;20104;-70
2023/06/22 17:07:52;;;;;;;11.27;5.53;;;;;;;29.92;42.39;97540.00;10560297;28;20058;-71
2023/06/22 17:13:13;;;;;;;9.48;6.20;;;;;;;29.86;42.85;97531.41;10588404;28;20119;-71
2023/06/22 17:18:34;;;;;;;9.80;5.45;;;;;;;29.86;43.29;97531.41;10587934;28;20466;-71
2023/06/22 17:23:56;;;;;;;9.45;5.93;;;;;;;29.75;43.13;97512.16;10558567;28;20044;-72
2023/06/22 17:29:17;;;;;;;8.57;5.32;;;;;;;29.59;44.26;97496.50;10542094;28;20387;-71
2023/06/22 17:34:38;;;;;;;7.80;5.07;;;;;;;29.43;44.25;97481.59;10544149;28;20130;-71
2023/06/22 17:39:58;;;;;;;8.95;5.70;;;;;;;29.25;44.56;97473.91;10572196;28;20040;-71
2023/06/22 17:45:22;;;;;;;7.53;5.63;;;;;;;29.11;44.86;97469.00;10557572;28;20477;-70
2023/06/22 17:50:43;;;;;;;6.70;5.00;;;;;;;29.06;45.13;97482.69;10586685;28;20047;-72
2023/06/22 17:56:04;;;;;;;9.98;5.47;;;;;;;29.10;45.11;97493.44;10571407;28;20051;-71
2023/06/22 18:01:29;;;;;;;10.02;5.75;;;;;;;29.09;45.42;97494.88;10557171;28;20040;-71
2023/06/22 18:06:50;;;;;;;9.60;5.90;;;;;;;28.96;45.78;97497.16;10618628;27;20054;-71
2023/06/22 18:12:11;;;;;;;10.98;5.28;;;;;;;28.84;46.44;97502.25;10627321;27;20511;-72
2023/06/22 18:17:32;;;;;;;8.05;5.82;;;;;;;28.66;46.91;97503.13;10613227;27;20504;-71
2023/06/22 18:22:53;;;;;;;9.15;5.75;;;;;;;28.53;47.37;97485.28;10598366;27;20047;-71
2023/06/22 18:28:13;;;;;;;9.07;5.57;;;;;;;28.37;48.21;97468.19;10598343;27;20107;-71
2023/06/22 18:33:34;;;;;;;9.20;5.93;;;;;;;28.22;49.04;97462.53;10598091;27;20459;-71
2023/06/22 18:38:58;;;;;;;11.00;6.15;;;;;;;28.07;49.76;97441.09;10627604;27;20499;-71
2023/06/22 18:44:21;;;;;;;9.00;5.97;;;;;;;27.90;50.88;97454.13;10627091;27;20066;-71
2023/06/22 18:49:41;;;;;;;7.15;5.88;;;;;;;27.74;51.68;97491.50;10611674;27;20043;-69
2023/06/22 18:55:03;;;;;;;9.73;6.38;;;;;;;27.60;51.71;97489.34;10626826;27;20500;-69
2023/06/22 19:00:30;;;;;;;14.13;6.72;;;;;;;27.45;52.48;97485.13;10596987;27;20392;-69
2023/06/22 19:05:50;;;;;;;8.70;5.70;;;;;;;27.31;52.75;97492.34;10586899;27;20048;-69
2023/06/22 19:11:12;;;;;;;8.68;5.53;;;;;;;27.23;51.79;97508.84;10568132;28;20105;-70
2023/06/22 19:16:33;;;;;;;10.07;5.50;;;;;;;27.15;51.33;97517.44;10583660;28;20043;-69
2023/06/22 19:22:01;;;;;;;9.10;6.00;;;;;;;27.05;51.73;97536.06;10554025;28;20047;-69
2023/06/22 19:27:22;;;;;;;7.65;5.45;;;;;;;26.97;51.60;97544.63;10583058;28;20040;-69
2023/06/22 19:32:44;;;;;;;10.95;5.15;;;;;;;26.94;51.60;97551.81;10553275;28;20424;-69
2023/06/22 19:38:07;;;;;;;9.57;5.50;;;;;;;26.91;51.48;97533.16;10567362;28;20098;-69
2023/06/22 19:43:29;;;;;;;8.52;5.07;;;;;;;26.86;51.48;97523.16;10582592;28;20113;-68
2023/06/22 19:48:50;;;;;;;6.97;4.87;;;;;;;26.82;51.34;97494.53;10539038;28;20063;-69
2023/06/22 19:54:11;;;;;;;8.88;5.22;;;;;;;26.73;51.41;97470.19;10582204;28;20067;-69
2023/06/22 19:59:32;;;;;;;7.97;4.87;;;;;;;26.62;51.83;97445.88;10566253;28;20071;-69
2023/06/22 20:04:53;;;;;;;12.30;5.10;;;;;;;26.49;52.39;97445.88;10582366;27;20371;-69
2023/06/22 20:10:15;;;;;;;10.07;5.22;;;;;;;26.36;52.50;97430.13;10624091;27;20050;-69
2023/06/22 20:15:40;;;;;;;11.55;5.40;;;;;;;26.21;53.37;97397.94;10609038;28;20435;-69
2023/06/22 20:21:01;;;;;;;7.78;5.57;;;;;;;26.07;54.04;97377.19;10624095;28;20058;-69
2023/06/22 20:26:22;;;;;;;6.93;5.28;;;;;;;25.95;54.42;97383.59;10608385;28;20436;-69
2023/06/22 20:31:42;;;;;;;7.80;5.00;;;;;;;25.87;54.73;97375.03;10608461;28;20095;-69
2023/06/22 20:37:03;;;;;;;10.68;5.00;;;;;;;25.77;54.98;97329.28;10614100;27;20493;-69
2023/06/22 20:42:24;;;;;;;8.27;4.32;;;;;;;25.68;54.88;97294.97;10616832;27;20067;-68
2023/06/22 20:47:44;;;;;;;9.15;4.70;;;;;;;25.58;55.06;97282.81;10616740;27;20076;-68
2023/06/22 20:53:06;;;;;;;7.47;4.55;;;;;;;25.49;55.32;97296.38;10631836;27;20139;-68
2023/06/22 20:58:27;;;;;;;8.67;4.23;;;;;;;25.43;55.53;97315.63;10602440;27;20039;-67
2023/06/22 21:03:47;;;;;;;7.82;4.57;;;;;;;25.37;56.28;97342.03;10609069;27;20086;-68
2023/06/22 21:09:09;;;;;;;9.20;4.22;;;;;;;25.37;56.25;97399.88;10588539;28;20444;-68
2023/06/22 21:14:29;;;;;;;9.13;4.30;;;;;;;25.48;55.92;97425.63;10588416;28;20063;-68
2023/06/22 21:19:50;;;;;;;8.25;3.85;;;;;;;25.48;56.55;97406.38;10588059;28;20077;-68
2023/06/22 21:25:13;;;;;;;11.55;3.97;;;;;;;25.54;56.44;97397.78;10572510;28;20075;-68
2023/06/22 21:30:34;;;;;;;6.88;4.07;;;;;;;25.58;56.07;97403.53;10587461;28;20067;-68
2023/06/22 21:35:55;;;;;;;6.75;3.60;;;;;;;25.65;56.08;97409.97;10587559;28;20119;-68
2023/06/22 21:41:15;;;;;;;8.23;4.07;;;;;;;25.68;56.07;97400.00;10543715;28;20050;-69
2023/06/22 21:46:36;;;;;;;5.68;4.55;;;;;;;25.62;56.10;97423.53;10571671;28;20044;-68
2023/06/22 21:51:57;;;;;;;8.32;4.20;;;;;;;25.57;56.80;97415.66;10586685;28;20043;-69
2023/06/22 21:57:21;;;;;;;7.15;4.00;;;;;;;25.42;58.14;97405.63;10557518;28;20093;-69
2023/06/22 22:02:43;;;;;;;8.93;4.68;;;;;;;25.27;58.53;97431.25;10571768;28;20497;-69
2023/06/22 22:08:05;;;;;;;8.80;5.00;;;;;;;25.15;60.08;97391.22;10570938;28;20039;-69
2023/06/22 22:13:26;;;;;;;8.25;4.40;;;;;;;24.96;60.70;97387.53;10586128;28;20079;-69
2023/06/22 22:18:47;;;;;;;8.32;4.60;;;;;;;24.84;60.84;97399.63;10570571;28;20063;-68
2023/06/22 22:24:08;;;;;;;7.93;4.20;;;;;;;24.86;60.93;97423.88;10585737;28;20054;-68
2023/06/22 22:29:29;;;;;;;10.98;4.20;;;;;;;24.89;61.12;97440.31;10570362;28;20048;-68
2023/06/22 22:34:50;;;;;;;9.48;4.38;;;;;;;24.89;61.06;97462.41;10585349;28;20067;-67
2023/06/22 22:40:11;;;;;;;7.68;4.32;;;;;;;24.86;61.72;97450.28;10570002;28;20119;-69
2023/06/22 22:45:32;;;;;;;7.95;3.97;;;;;;;24.74;61.90;97401.69;10555242;28;20047;-68
2023/06/22 22:50:53;;;;;;;8.13;4.32;;;;;;;24.43;62.96;97426.44;10569544;28;20115;-69
2023/06/22 22:56:13;;;;;;;9.63;4.53;;;;;;;24.31;64.03;97404.22;10584275;28;20064;-69
2023/06/22 23:01:34;;;;;;;9.68;3.15;;;;;;;24.08;64.51;97474.56;10568473;28;20123;-68
2023/06/22 23:06:55;;;;;;;10.00;3.47;;;;;;;24.01;65.78;97510.13;10583793;28;20100;-69
2023/06/22 23:12:16;;;;;;;7.28;3.50;;;;;;;23.92;65.96;97554.22;10583519;28;20123;-69
2023/06/22 23:17:36;;;;;;;10.73;3.30;;;;;;;23.85;66.80;97581.22;10568400;28;20148;-68
2023/06/22 23:22:57;;;;;;;7.55;3.00;;;;;;;23.57;67.05;97689.78;10583309;28;20505;-69
2023/06/22 23:28:17;;;;;;;7.32;2.60;;;;;;;23.03;68.83;97696.72;10567994;28;20114;-69
2023/06/22 23:34:29;;;;;;;7.65;2.55;;;;;;;22.47;72.34;97645.88;10583232;28;20164;-69
2023/06/22 23:39:50;;;;;;;9.95;2.10;;;;;;;22.11;72.49;97631.69;10583012;28;20051;-69
2023/06/22 23:45:10;;;;;;;8.50;3.03;;;;;;;21.87;73.18;97588.50;10567695;28;20181;-69
2023/06/22 23:50:31;;;;;;;11.15;2.83;;;;;;;21.72;73.71;97607.38;10567381;28;20067;-69
2023/06/22 23:55:56;;;;;;;9.55;2.13;;;;;;;21.54;74.56;97556.59;10567474;28;20184;-69
